Weather observations for the past three days for
Allendale County Airport
Imperial (Metric)
Date Time (edt) Wind (mph) Vis. (mi.) Weather Sky Cond. Temperature (ºF) Relative Humidity Wind Chill (°F) Heat Index (°F) Pressure Precipitation (in)
Air Dwpt 6 hour altimeter (in) sea level (mb) 1 hr 3 hr 6 hr
Max. Min.
10 16:55 Vrbl 3 10.00 Fair CLR 86 55.4 35% 85 29.95 0.0
10 16:35 Calm 10.00 Fair CLR 86 55.4 35% 85 29.95 0.0
10 16:15 Vrbl 6 10.00 Fair CLR 86 57.2 38% 85 29.95 0.0
10 15:55 Vrbl 5 10.00 Fair CLR 86 59 40% 85 29.96 0.0
10 15:35 S 5 10.00 Fair CLR 84.2 57.2 40% 83 29.96 0.0
10 15:15 Vrbl 3 10.00 Fair CLR 84.2 59 43% 84 29.97 0.0
10 14:55 Vrbl 3 10.00 Fair CLR 84.2 57.2 40% 83 29.97 0.0
10 14:35 Calm 10.00 Fair CLR 84.2 57.2 40% 83 29.98 0.0
10 13:55 S 5 10.00 A Few Clouds FEW050 82.4 57.2 42% 82 29.99 0.0
10 13:35 Vrbl 3 10.00 A Few Clouds FEW050 84.2 59 43% 84 30 0.0
10 13:15 Calm 10.00 Fair CLR 82.4 59 45% 82 30 0.0
10 12:55 Vrbl 6 10.00 Fair CLR 82.4 59 45% 82 30 0.0
10 12:35 Calm 10.00 Fair CLR 80.6 59 48% 81 30.01 0.0
10 12:15 Calm 10.00 Fair CLR 78.8 60.8 54% 80 30.01 0.0
10 11:55 Calm 10.00 Fair CLR 78.8 60.8 54% 80 30.01 0.0
10 11:35 Calm 10.00 Fair CLR 78.8 62.6 58% 80 30.01 0.0
10 11:15 Calm 10.00 Fair CLR 77 62.6 61% 79 30.01 0.0
10 10:55 Calm 10.00 Fair CLR 77 62.6 61% 79 30.01 0.0
10 10:35 NW 5 10.00 Fair CLR 75.2 62.6 65% 77 30.01 0.0
10 10:15 Vrbl 3 10.00 Fair CLR 75.2 64.4 69% 77 30.01 0.0
10 09:55 Calm 10.00 Fair CLR 73.4 64.4 74% 30.01 0.0
10 09:35 Vrbl 5 10.00 Fair CLR 71.6 64.4 78% 30.01 0.0
10 08:55 Calm 10.00 Fair CLR 69.8 66.2 88% 30 0.0
10 08:35 Calm 10.00 A Few Clouds FEW006 68 66.2 94% 30 0.0
10 08:15 Calm 10.00 A Few Clouds FEW006 68 66.2 94% 30 0.0
10 07:55 Calm 10.00 A Few Clouds FEW005 66.2 66.2 100% 29.99 0.0
10 07:35 Calm 10.00 Fair CLR 64.4 64.4 100% 29.99 0.0
10 07:15 Calm 10.00 Fair CLR 64.4 64.4 100% 29.99 0.0
10 06:55 Calm 10.00 Fair CLR 64.4 64.4 100% 29.98 0.0
10 06:35 Calm 9.00 Fair CLR 64.4 64.4 100% 29.98 0.0
10 06:15 Calm 10.00 Fair CLR 64.4 64.4 100% 29.97 0.0
10 05:55 Calm 10.00 Fair CLR 64.4 64.4 100% 29.97 0.0
10 05:35 Calm 10.00 Fair CLR 64.4 64.4 100% 29.96 0.0
10 05:15 Calm 10.00 Partly Cloudy SCT095 64.4 64.4 100% 29.96 0.0
10 04:55 Calm 10.00 Mostly Cloudy BKN095 64.4 64.4 100% 29.95 0.0
10 04:35 Calm 10.00 Fair CLR 64.4 64.4 100% 29.93 0.0
10 04:15 Calm 10.00 Partly Cloudy SCT100 64.4 64.4 100% 29.94 0.0
10 03:55 Calm 10.00 Partly Cloudy SCT100 64.4 64.4 100% 29.94 0.0
10 03:35 Calm 10.00 Fair CLR 64.4 64.4 100% 29.92 0.0
10 03:15 Calm 10.00 Fair CLR 66.2 64.4 94% 29.93 0.0
10 02:35 Calm 10.00 A Few Clouds FEW095 66.2 64.4 94% 29.93 0.0
10 02:15 Calm 10.00 Fair CLR 66.2 64.4 94% 29.93 0.0
10 01:55 Calm 10.00 Fair CLR 66.2 64.4 94% 29.93 0.0
10 01:35 Calm 10.00 Fair CLR 66.2 64.4 94% 29.93 0.0
10 01:15 Calm 10.00 Fair CLR 66.2 64.4 94% 29.94 0.0
10 00:55 Calm 10.00 Fair CLR 66.2 64.4 94% 29.94 0.0
10 00:35 Calm 10.00 Fair CLR 66.2 64.4 94% 29.93 0.0
10 00:15 Calm 10.00 Fair CLR 66.2 64.4 94% 29.94 0.0
09 23:55 Calm 10.00 Fair CLR 66.2 64.4 94% 29.94 0.0
09 23:15 Calm 10.00 Fair CLR 66.2 64.4 94% 29.94 0.0
09 22:55 Calm 10.00 Fair CLR 68 64.4 88% 29.94 0.0
09 22:35 Calm 10.00 Fair CLR 68 64.4 88% 29.93 0.0
09 22:15 Calm 10.00 Fair CLR 68 64.4 88% 29.92 0.0
09 21:55 Calm 10.00 Fair CLR 68 64.4 88% 29.92 0.0
09 21:35 Calm 10.00 Partly Cloudy SCT100 69.8 64.4 83% 29.91 0.0
09 21:15 Calm 10.00 Overcast OVC100 69.8 64.4 83% 29.91 0.0
09 20:55 Calm 10.00 Overcast OVC110 71.6 64.4 78% 29.9 0.0
09 20:35 Calm 10.00 Overcast OVC100 71.6 64.4 78% 29.89 0.0
09 20:15 Calm 10.00 Overcast OVC100 71.6 64.4 78% 29.89 0.0
09 19:55 Calm 10.00 Mostly Cloudy BKN110 71.6 64.4 78% 29.88 0.0
09 19:35 Calm 10.00 Partly Cloudy SCT110 73.4 64.4 74% 29.88 0.0
09 19:15 Calm 10.00 Mostly Cloudy BKN110 73.4 64.4 74% 29.87 0.0
09 18:55 Calm 10.00 Mostly Cloudy BKN110 73.4 62.6 69% 29.87 0.0
09 18:35 Calm 10.00 Overcast OVC120 75.2 62.6 65% 77 29.86 0.0
09 18:15 Calm 10.00 Mostly Cloudy BKN120 75.2 64.4 69% 77 29.86 0.0
09 17:55 Calm 10.00 Fair CLR 75.2 64.4 69% 77 29.85 0.0
09 17:35 Vrbl 3 10.00 Fair CLR 75.2 62.6 65% 77 29.86 0.0
09 17:15 Vrbl 5 G 12 10.00 Fair CLR 75.2 62.6 65% 77 29.86 0.0
09 16:55 Calm 10.00 Fair CLR 75.2 62.6 65% 77 29.87 0.0
09 16:35 Vrbl 6 10.00 Fair CLR 77 62.6 61% 79 29.88 0.0
09 16:15 Calm 10.00 Fair CLR 75.2 62.6 65% 77 29.88 0.0
09 15:55 Calm 10.00 Partly Cloudy SCT050 75.2 62.6 65% 77 29.87 0.0
09 15:35 Vrbl 5 10.00 Overcast OVC050 75.2 62.6 65% 77 29.89 0.0
09 15:15 Calm 10.00 Mostly Cloudy BKN050 75.2 62.6 65% 77 29.89 0.0
09 14:55 Calm 10.00 A Few Clouds FEW055 77 62.6 61% 79 29.89 0.0
09 14:35 Vrbl 5 10.00 Partly Cloudy FEW029 SCT037 SCT047 77 64.4 65% 79 29.9 0.0
09 14:15 Calm 10.00 Mostly Cloudy SCT030 BKN036 BKN047 75.2 64.4 69% 77 29.91 0.0
09 13:55 Calm 10.00 Fair CLR 75.2 64.4 69% 77 29.9 0.0
09 13:35 Calm 10.00 Fair CLR 75.2 64.4 69% 77 29.89 0.0
09 13:15 Calm 10.00 Fair CLR 75.2 64.4 69% 77 29.89 0.0
09 12:55 Vrbl 5 10.00 Mostly Cloudy BKN070 73.4 64.4 74% 29.89 0.0
09 12:35 Calm 10.00 Overcast OVC070 71.6 64.4 78% 29.91 0.0
09 12:15 Calm 10.00 Overcast FEW055 BKN070 OVC080 71.6 66.2 83% 29.93 0.0
09 11:55 Calm 10.00 Overcast FEW016 SCT070 OVC080 71.6 66.2 83% 29.92 0.0
09 11:35 Calm 10.00 Overcast FEW017 OVC075 69.8 64.4 83% 29.92 0.0
09 11:15 S 5 10.00 Overcast FEW013 SCT055 OVC075 69.8 64.4 83% 29.92 0.0
09 10:55 Calm 10.00 Overcast SCT012 OVC060 68 64.4 88% 29.93 0.0
09 10:35 Calm 10.00 Mostly Cloudy SCT009 BKN060 BKN075 68 64.4 88% 29.93 0.0
09 10:15 Calm 10.00 Mostly Cloudy SCT008 BKN070 BKN085 66.2 64.4 94% 29.92 0.0
09 09:55 Calm 10.00 Overcast BKN007 OVC070 66.2 64.4 94% 29.93 0.0
09 09:35 Calm 10.00 Overcast BKN008 OVC070 64.4 62.6 94% 29.93 0.0
09 09:15 Calm 10.00 Overcast BKN010 OVC013 64.4 62.6 94% 29.93 0.0
09 08:55 Calm 10.00 Overcast BKN012 BKN055 OVC080 64.4 62.6 94% 29.94 0.0
09 08:35 Calm 10.00 Overcast BKN013 BKN080 OVC100 62.6 60.8 94% 29.93 0.0
09 08:15 Calm 10.00 Overcast BKN013 OVC080 60.8 60.8 100% 29.93 0.0
09 07:55 Calm 10.00 Overcast BKN012 OVC090 60.8 60.8 100% 29.94 0.0
09 07:35 Calm 10.00 Overcast OVC090 60.8 60.8 100% 29.94 0.0
09 07:15 Calm 9.00 Mostly Cloudy BKN090 59 59 100% 29.93 0.0
09 06:55 Calm 10.00 A Few Clouds FEW095 59 59 100% 29.92 0.0
09 06:35 Calm 10.00 A Few Clouds FEW100 59 59 100% 29.9 0.0
09 06:15 Calm 10.00 A Few Clouds FEW100 60.8 59 94% 29.9 0.0
09 05:55 Calm 10.00 Fair CLR 60.8 59 94% 29.9 0.0
09 05:35 Calm 10.00 Fair CLR 60.8 59 94% 29.89 0.0
09 05:15 Calm 10.00 A Few Clouds FEW120 60.8 59 94% 29.89 0.0
09 04:55 Calm 10.00 A Few Clouds FEW110 60.8 59 94% 29.9 0.0
09 04:35 Calm 10.00 Fair CLR 60.8 60.8 100% 29.9 0.0
09 03:55 Calm 10.00 Fair CLR 62.6 59 88% 29.9 0.0
09 03:35 Calm 10.00 Fair CLR 62.6 60.8 94% 29.91 0.0
09 03:15 Calm 10.00 Fair CLR 62.6 60.8 94% 29.93 0.0
09 02:55 Calm 10.00 Fair CLR 62.6 60.8 94% 29.92 0.0
09 02:35 Calm 10.00 A Few Clouds FEW013 62.6 60.8 94% 29.92 0.0
09 02:15 Calm 10.00 Mostly Cloudy BKN013 62.6 60.8 94% 29.93 0.0
09 01:55 Calm 10.00 Partly Cloudy SCT012 62.6 60.8 94% 29.92 0.0
09 01:35 Calm 10.00 A Few Clouds FEW015 FEW120 62.6 60.8 94% 29.94 0.0
09 01:15 Calm 10.00 A Few Clouds FEW120 64.4 60.8 88% 29.96 0.0
09 00:55 Calm 10.00 Fair CLR 64.4 59 83% 29.96 0.0
09 00:35 Calm 10.00 Fair CLR 64.4 59 83% 29.96 0.0
09 00:15 Calm 10.00 A Few Clouds FEW120 64.4 59 83% 29.97 0.0
08 23:55 Calm 10.00 A Few Clouds FEW120 64.4 59 83% 29.98 0.0
08 23:35 Calm 10.00 Fair CLR 64.4 59 83% 29.97 0.0
08 23:15 Calm 10.00 Partly Cloudy SCT046 66.2 59 78% 29.97 0.0
08 22:55 Calm 10.00 Mostly Cloudy BKN045 66.2 59 78% 29.98 0.0
08 22:35 Calm 10.00 Fair CLR 66.2 59 78% 29.99 0.0
08 22:15 Calm 10.00 Fair CLR 66.2 59 78% 29.98 0.0
08 21:55 Calm 10.00 Fair CLR 66.2 59 78% 29.99 0.0
08 21:35 Calm 10.00 A Few Clouds FEW120 66.2 57.2 73% 30 0.0
08 21:15 SE 7 10.00 Fair CLR 68 57.2 69% 29.97 0.0
08 20:55 Calm 10.00 Fair CLR 68 57.2 69% 29.97 0.0
08 20:35 Calm 10.00 Fair CLR 68 57.2 69% 29.97 0.0
08 20:15 Calm 10.00 Fair CLR 68 57.2 69% 29.95 0.0
08 19:55 Calm 10.00 Fair CLR 69.8 55.4 60% 29.95 0.0
08 19:35 Calm 10.00 Fair CLR 69.8 57.2 64% 29.95 0.0
08 19:15 Calm 10.00 Fair CLR 71.6 55.4 57% 29.94 0.0
08 18:55 Calm 10.00 Fair CLR 71.6 55.4 57% 29.94 0.0
08 18:35 Calm 10.00 Fair CLR 73.4 51.8 47% 29.94 0.0
08 18:15 Calm 10.00 Fair CLR 73.4 51.8 47% 29.95 0.0
08 17:55 Calm 10.00 Fair CLR 73.4 53.6 50% 29.94 0.0
08 17:35 Calm 10.00 Fair CLR 73.4 51.8 47% 29.94 0.0
08 17:15 Calm 10.00 Fair CLR 73.4 51.8 47% 29.94 0.0
08 16:35 Calm 10.00 Fair CLR 73.4 51.8 47% 29.95 0.0
08 15:55 Calm 10.00 Fair CLR 73.4 51.8 47% 29.95 0.0
08 15:35 Calm 10.00 Fair CLR 73.4 51.8 47% 29.96 0.0
08 15:15 Calm 10.00 Fair CLR 73.4 50 44% 29.98 0.0
08 14:55 Calm 10.00 Fair CLR 71.6 50 47% 29.99 0.0
08 14:35 Calm 10.00 Fair CLR 71.6 50 47% 29.99 0.0
08 14:15 Calm 10.00 Fair CLR 73.4 51.8 47% 30 0.0
08 13:55 Calm 10.00 Fair CLR 71.6 50 47% 30 0.0
08 13:35 Calm 10.00 Fair CLR 71.6 51.8 50% 30.01 0.0
08 13:15 Calm 10.00 Fair CLR 71.6 50 47% 30.01 0.0
08 12:55 Calm 10.00 Fair CLR 71.6 50 47% 30.02 0.0
08 12:35 Calm 10.00 Fair CLR 69.8 50 50% 30.03 0.0
08 12:15 NE 5 10.00 Fair CLR 69.8 50 50% 30.03 0.0
08 11:55 Calm 10.00 Fair CLR 69.8 50 50% 30.04 0.0
08 11:15 Vrbl 5 10.00 Fair CLR 68 50 53% 30.06 0.0
08 10:55 Calm 10.00 Fair CLR 66.2 50 56% 30.06 0.0
08 10:35 NE 6 G 12 10.00 Fair CLR 66.2 50 56% 30.06 0.0
08 10:15 Vrbl 5 10.00 Fair CLR 66.2 51.8 60% 30.06 0.0
08 09:55 Vrbl 6 G 15 10.00 Fair CLR 64.4 50 60% 30.05 0.0
08 09:35 Vrbl 6 G 12 10.00 Fair CLR 64.4 50 60% 30.04 0.0
08 09:15 Calm 10.00 Fair CLR 62.6 53.6 73% 30.04 0.0
08 08:55 Vrbl 5 G 13 10.00 Fair CLR 62.6 53.6 73% 30.03 0.0
08 08:35 Calm 10.00 Fair CLR 60.8 55.4 83% 30.03 0.0
08 08:15 Calm 10.00 Fair CLR 60.8 57.2 88% 30.02 0.0
08 07:55 Calm 10.00 Fair CLR 59 55.4 88% 30.01 0.0
08 07:35 Calm 10.00 Fair CLR 59 55.4 88% 30 0.0
08 07:15 Calm 10.00 Fair CLR 59 57.2 94% 29.99 0.0
08 06:55 Calm 10.00 Fair CLR 59 57.2 94% 29.99 0.0
08 06:35 Calm 10.00 Fair CLR 59 55.4 88% 29.98 0.0
08 06:15 Calm 10.00 Fair CLR 59 55.4 88% 29.96 0.0
08 05:55 Calm 10.00 Fair CLR 60.8 57.2 88% 29.95 0.0
08 05:35 Calm 10.00 Fair CLR 60.8 57.2 88% 29.95 0.0
08 05:15 Calm 10.00 Fair CLR 60.8 55.4 83% 29.94 0.0
08 04:55 Calm 10.00 Fair CLR 60.8 55.4 83% 29.93 0.0
08 04:35 Calm 10.00 Fair CLR 62.6 55.4 77% 29.94 0.0
08 04:15 Calm 10.00 Fair CLR 62.6 57.2 83% 29.93 0.0
08 03:35 Calm 10.00 A Few Clouds FEW041 62.6 57.2 83% 29.93 0.0
08 03:15 Calm 10.00 A Few Clouds FEW041 62.6 57.2 83% 29.93 0.0
08 02:55 Calm 10.00 A Few Clouds FEW042 62.6 59 88% 29.93 0.0
08 02:35 Calm 10.00 A Few Clouds FEW042 62.6 60.8 94% 29.92 0.0
08 02:15 Calm 10.00 Fair CLR 62.6 60.8 94% 29.93 0.0
08 01:55 Calm 10.00 Fair CLR 64.4 59 83% 29.93 0.0
08 01:35 Calm 10.00 Fair CLR 64.4 59 83% 29.92 0.0
08 01:15 Calm 10.00 Fair CLR 66.2 59 78% 29.92 0.0
08 00:55 Calm 10.00 Fair CLR 66.2 59 78% 29.92 0.0
08 00:35 Vrbl 6 10.00 Fair CLR 68 60.8 78% 29.91 0.0
08 00:15 Calm 10.00 Fair CLR 68 64.4 88% 29.91 0.0
07 23:55 Calm 10.00 Fair CLR 68 68 100% 29.91 0.0
07 23:35 Calm 10.00 Fair CLR 69.8 69.8 100% 29.91 0.0
07 23:15 Calm 10.00 Fair CLR 69.8 69.8 100% 29.9 0.0
07 22:55 Calm 10.00 A Few Clouds FEW028 FEW040 69.8 69.8 100% 29.89 0.0
07 22:35 Calm 10.00 Partly Cloudy SCT028 SCT036 SCT042 69.8 69.8 100% 29.88 0.0
07 22:15 Calm 10.00 Mostly Cloudy SCT030 BKN035 BKN040 69.8 69.8 100% 29.87 0.0
07 21:55 Calm 10.00 Mostly Cloudy BKN032 69.8 69.8 100% 29.87 0.0
07 21:35 Calm 10.00 Fair CLR 69.8 69.8 100% 29.86 0.0
07 21:15 Calm 10.00 Fair CLR 69.8 69.8 100% 29.84 0.0
07 20:55 Calm 10.00 Fair CLR 71.6 71.6 100% 29.84 0.0
07 20:35 Calm 10.00 Fair CLR 71.6 71.6 100% 29.83 0.0
07 20:15 Calm 10.00 Fair CLR 71.6 71.6 100% 29.83 0.0
07 19:55 Calm 10.00 A Few Clouds FEW018 FEW022 73.4 71.6 94% 29.82 0.0
07 19:35 Calm 10.00 Partly Cloudy FEW016 SCT022 73.4 71.6 94% 29.82 0.0
07 19:15 Calm 10.00 A Few Clouds FEW047 FEW065 75.2 71.6 89% 75 29.81 0.0
07 18:55 Calm 10.00 Overcast FEW020 SCT030 OVC047 73.4 71.6 94% 29.82 0.0
07 18:35 Calm 10.00 Overcast SCT019 BKN023 OVC033 73.4 71.6 94% 29.82 0.0
07 18:15 Calm 10.00 Overcast SCT026 OVC033 73.4 71.6 94% 29.82 0.0
07 17:55 Calm 10.00 Overcast FEW012 BKN033 OVC038 73.4 71.6 94% 29.82 0.0
07 17:35 Calm 10.00 Overcast SCT009 BKN013 OVC039 73.4 71.6 94% 29.81 0.0
07 17:15 Calm 10.00 Overcast BKN009 OVC014 73.4 71.6 94% 29.81 0.0
Date Time (edt) Wind (mph) Vis. (mi.) Weather Sky Cond. Air Dwpt Max. Min. Relative Humidity Wind Chill (°F) Heat Index (°F) altimeter (in) sea level (mb) 1 hr 3 hr 6 hr
6 hour
Temperature (ºF) Pressure Precipitation (in)